sensor_id;sensor_type;location;lat;lon;timestamp;pressure;altitude;pressure_sealevel;temperature;humidity
17373;BME280;8803;48.116;11.590;2023-11-18T00:00:59;96313.80;;;8.75;100.00
17373;BME280;8803;48.116;11.590;2023-11-18T00:05:16;96312.97;;;8.74;100.00
17373;BME280;8803;48.116;11.590;2023-11-18T00:09:34;96316.95;;;8.74;100.00
17373;BME280;8803;48.116;11.590;2023-11-18T00:13:51;96311.73;;;8.73;100.00
17373;BME280;8803;48.116;11.590;2023-11-18T00:15:57;96311.32;;;8.66;100.00
17373;BME280;8803;48.116;11.590;2023-11-18T00:20:14;96307.13;;;8.69;100.00
17373;BME280;8803;48.116;11.590;2023-11-18T00:24:31;96321.14;;;8.71;100.00
17373;BME280;8803;48.116;11.590;2023-11-18T00:28:50;96318.14;;;8.70;100.00
17373;BME280;8803;48.116;11.590;2023-11-18T00:33:07;96318.88;;;8.72;100.00
17373;BME280;8803;48.116;11.590;2023-11-18T00:37:25;96311.70;;;8.67;100.00
17373;BME280;8803;48.116;11.590;2023-11-18T00:41:42;96321.00;;;8.67;100.00
17373;BME280;8803;48.116;11.590;2023-11-18T00:46:00;96330.76;;;8.67;100.00
17373;BME280;8803;48.116;11.590;2023-11-18T00:48:06;96331.08;;;8.62;100.00
17373;BME280;8803;48.116;11.590;2023-11-18T00:52:24;96327.84;;;8.64;100.00
17373;BME280;8803;48.116;11.590;2023-11-18T00:56:42;96331.00;;;8.64;100.00
17373;BME280;8803;48.116;11.590;2023-11-18T01:01:00;96332.32;;;8.64;100.00
17373;BME280;8803;48.116;11.590;2023-11-18T01:05:17;96331.94;;;8.63;100.00
17373;BME280;8803;48.116;11.590;2023-11-18T01:07:21;96333.97;;;8.59;100.00
17373;BME280;8803;48.116;11.590;2023-11-18T01:11:40;96339.43;;;8.63;100.00
17373;BME280;8803;48.116;11.590;2023-11-18T01:15:58;96342.94;;;8.64;100.00
17373;BME280;8803;48.116;11.590;2023-11-18T01:18:02;96345.53;;;8.58;100.00
17373;BME280;8803;48.116;11.590;2023-11-18T01:22:24;96347.39;;;8.63;100.00
17373;BME280;8803;48.116;11.590;2023-11-18T01:26:41;96348.84;;;8.62;100.00
17373;BME280;8803;48.116;11.590;2023-11-18T01:30:59;96352.23;;;8.64;100.00
17373;BME280;8803;48.116;11.590;2023-11-18T01:33:04;96351.22;;;8.59;100.00
17373;BME280;8803;48.116;11.590;2023-11-18T01:37:23;96351.84;;;8.63;100.00
17373;BME280;8803;48.116;11.590;2023-11-18T01:41:40;96348.25;;;8.64;100.00
17373;BME280;8803;48.116;11.590;2023-11-18T01:46:01;96350.05;;;8.63;100.00
17373;BME280;8803;48.116;11.590;2023-11-18T01:50:21;96359.69;;;8.64;100.00
17373;BME280;8803;48.116;11.590;2023-11-18T01:54:39;96361.52;;;8.64;100.00
17373;BME280;8803;48.116;11.590;2023-11-18T01:59:00;96362.84;;;8.64;100.00
17373;BME280;8803;48.116;11.590;2023-11-18T02:03:20;96369.48;;;8.64;100.00
17373;BME280;8803;48.116;11.590;2023-11-18T02:07:37;96371.28;;;8.63;100.00
17373;BME280;8803;48.116;11.590;2023-11-18T02:11:56;96367.42;;;8.62;100.00
17373;BME280;8803;48.116;11.590;2023-11-18T02:16:16;96371.28;;;8.63;100.00
17373;BME280;8803;48.116;11.590;2023-11-18T02:20:35;96372.14;;;8.64;100.00
17373;BME280;8803;48.116;11.590;2023-11-18T02:24:54;96375.53;;;8.66;100.00
17373;BME280;8803;48.116;11.590;2023-11-18T02:29:12;96375.73;;;8.63;100.00
17373;BME280;8803;48.116;11.590;2023-11-18T02:33:35;96379.24;;;8.63;100.00
17373;BME280;8803;48.116;11.590;2023-11-18T02:35:46;96384.02;;;8.58;100.00
17373;BME280;8803;48.116;11.590;2023-11-18T02:40:08;96379.24;;;8.63;100.00
17373;BME280;8803;48.116;11.590;2023-11-18T02:44:31;96379.71;;;8.63;100.00
17373;BME280;8803;48.116;11.590;2023-11-18T02:48:49;96380.77;;;8.60;100.00
17373;BME280;8803;48.116;11.590;2023-11-18T02:53:08;96380.19;;;8.62;100.00
17373;BME280;8803;48.116;11.590;2023-11-18T02:57:26;96372.73;;;8.62;100.00
17373;BME280;8803;48.116;11.590;2023-11-18T03:01:43;96371.87;;;8.61;100.00
17373;BME280;8803;48.116;11.590;2023-11-18T03:06:00;96379.83;;;8.61;100.00
17373;BME280;8803;48.116;11.590;2023-11-18T03:10:18;96376.20;;;8.62;100.00
17373;BME280;8803;48.116;11.590;2023-11-18T03:14:37;96382.37;;;8.63;100.00
17373;BME280;8803;48.116;11.590;2023-11-18T03:18:55;96386.82;;;8.62;100.00
17373;BME280;8803;48.116;11.590;2023-11-18T03:23:14;96393.95;;;8.62;100.00
17373;BME280;8803;48.116;11.590;2023-11-18T03:27:33;96399.73;;;8.61;100.00
17373;BME280;8803;48.116;11.590;2023-11-18T03:31:51;96398.53;;;8.60;100.00
17373;BME280;8803;48.116;11.590;2023-11-18T03:36:11;96400.20;;;8.61;100.00
17373;BME280;8803;48.116;11.590;2023-11-18T03:40:28;96404.19;;;8.61;100.00
17373;BME280;8803;48.116;11.590;2023-11-18T03:44:46;96401.06;;;8.61;100.00
17373;BME280;8803;48.116;11.590;2023-11-18T03:51:15;96406.84;;;8.61;100.00
17373;BME280;8803;48.116;11.590;2023-11-18T03:55:33;96416.13;;;8.61;100.00
17373;BME280;8803;48.116;11.590;2023-11-18T03:59:50;96421.44;;;8.61;100.00
17373;BME280;8803;48.116;11.590;2023-11-18T04:01:55;96429.13;;;8.58;100.00
17373;BME280;8803;48.116;11.590;2023-11-18T04:04:00;96419.10;;;8.56;100.00
17373;BME280;8803;48.116;11.590;2023-11-18T04:06:07;96426.59;;;8.57;100.00
17373;BME280;8803;48.116;11.590;2023-11-18T04:10:24;96429.52;;;8.59;100.00
17373;BME280;8803;48.116;11.590;2023-11-18T04:14:42;96420.59;;;8.60;100.00
17373;BME280;8803;48.116;11.590;2023-11-18T04:19:00;96422.30;;;8.61;100.00
17373;BME280;8803;48.116;11.590;2023-11-18T04:23:19;96413.59;;;8.59;100.00
17373;BME280;8803;48.116;11.590;2023-11-18T04:27:37;96421.44;;;8.61;100.00
17373;BME280;8803;48.116;11.590;2023-11-18T04:31:54;96414.45;;;8.60;100.00
17373;BME280;8803;48.116;11.590;2023-11-18T04:33:58;96412.47;;;8.56;100.00
17373;BME280;8803;48.116;11.590;2023-11-18T04:38:16;96414.80;;;8.61;100.00
17373;BME280;8803;48.116;11.590;2023-11-18T04:42:32;96417.11;;;8.60;100.00
17373;BME280;8803;48.116;11.590;2023-11-18T04:46:50;96411.30;;;8.60;100.00
17373;BME280;8803;48.116;11.590;2023-11-18T04:51:07;96411.80;;;8.60;100.00
17373;BME280;8803;48.116;11.590;2023-11-18T04:53:11;96420.43;;;8.56;100.00
17373;BME280;8803;48.116;11.590;2023-11-18T04:57:29;96420.59;;;8.60;100.00
17373;BME280;8803;48.116;11.590;2023-11-18T05:01:46;96425.06;;;8.60;100.00
17373;BME280;8803;48.116;11.590;2023-11-18T05:03:50;96426.23;;;8.56;100.00
17373;BME280;8803;48.116;11.590;2023-11-18T05:05:55;96430.69;;;8.55;100.00
17373;BME280;8803;48.116;11.590;2023-11-18T05:10:12;96425.42;;;8.61;100.00
17373;BME280;8803;48.116;11.590;2023-11-18T05:14:29;96427.72;;;8.60;100.00
17373;BME280;8803;48.116;11.590;2023-11-18T05:18:48;96435.57;;;8.61;100.00
17373;BME280;8803;48.116;11.590;2023-11-18T05:23:05;96438.34;;;8.60;100.00
17373;BME280;8803;48.116;11.590;2023-11-18T05:27:24;96419.76;;;8.60;100.00
17373;BME280;8803;48.116;11.590;2023-11-18T05:31:42;96408.64;;;8.60;100.00
17373;BME280;8803;48.116;11.590;2023-11-18T05:36:01;96407.81;;;8.60;100.00
17373;BME280;8803;48.116;11.590;2023-11-18T05:38:07;96408.98;;;8.56;100.00
17373;BME280;8803;48.116;11.590;2023-11-18T05:42:25;96412.73;;;8.59;100.00
17373;BME280;8803;48.116;11.590;2023-11-18T05:46:43;96415.78;;;8.60;100.00
17373;BME280;8803;48.116;11.590;2023-11-18T05:51:02;96415.39;;;8.59;100.00
17373;BME280;8803;48.116;11.590;2023-11-18T05:55:23;96415.86;;;8.58;100.00
17373;BME280;8803;48.116;11.590;2023-11-18T05:59:39;96415.98;;;8.57;100.00
17373;BME280;8803;48.116;11.590;2023-11-18T06:03:56;96425.27;;;8.57;100.00
17373;BME280;8803;48.116;11.590;2023-11-18T06:08:14;96436.73;;;8.57;100.00
17373;BME280;8803;48.116;11.590;2023-11-18T06:12:31;96453.88;;;8.59;100.00
17373;BME280;8803;48.116;11.590;2023-11-18T06:16:48;96457.50;;;8.58;100.00
17373;BME280;8803;48.116;11.590;2023-11-18T06:21:07;96463.63;;;8.58;100.00
17373;BME280;8803;48.116;11.590;2023-11-18T06:25:24;96457.00;;;8.58;100.00
17373;BME280;8803;48.116;11.590;2023-11-18T06:29:42;96459.30;;;8.57;100.00
17373;BME280;8803;48.116;11.590;2023-11-18T06:33:59;96455.79;;;8.57;100.00
17373;BME280;8803;48.116;11.590;2023-11-18T06:38:21;96459.58;;;8.60;100.00
17373;BME280;8803;48.116;11.590;2023-11-18T06:42:39;96462.11;;;8.61;100.00
17373;BME280;8803;48.116;11.590;2023-11-18T06:46:56;96453.92;;;8.64;100.00
17373;BME280;8803;48.116;11.590;2023-11-18T06:51:14;96455.16;;;8.66;100.00
17373;BME280;8803;48.116;11.590;2023-11-18T06:55:32;96459.89;;;8.68;100.00
17373;BME280;8803;48.116;11.590;2023-11-18T06:59:50;96456.27;;;8.69;100.00
17373;BME280;8803;48.116;11.590;2023-11-18T07:01:55;96454.19;;;8.67;100.00
17373;BME280;8803;48.116;11.590;2023-11-18T07:06:16;96460.91;;;8.72;100.00
17373;BME280;8803;48.116;11.590;2023-11-18T07:10:32;96462.47;;;8.75;100.00
17373;BME280;8803;48.116;11.590;2023-11-18T07:12:39;96466.30;;;8.71;100.00
17373;BME280;8803;48.116;11.590;2023-11-18T07:16:56;96457.34;;;8.79;100.00
17373;BME280;8803;48.116;11.590;2023-11-18T07:21:13;96462.55;;;8.81;100.00
17373;BME280;8803;48.116;11.590;2023-11-18T07:25:31;96458.44;;;8.82;100.00
17373;BME280;8803;48.116;11.590;2023-11-18T07:29:50;96468.86;;;8.85;100.00
17373;BME280;8803;48.116;11.590;2023-11-18T07:34:08;96465.23;;;8.86;100.00
17373;BME280;8803;48.116;11.590;2023-11-18T07:38:25;96474.41;;;8.88;100.00
17373;BME280;8803;48.116;11.590;2023-11-18T07:42:43;96473.47;;;8.89;100.00
17373;BME280;8803;48.116;11.590;2023-11-18T07:47:01;96481.24;;;8.92;100.00
17373;BME280;8803;48.116;11.590;2023-11-18T07:51:20;96479.56;;;8.96;100.00
17373;BME280;8803;48.116;11.590;2023-11-18T07:55:39;96479.83;;;8.99;100.00
17373;BME280;8803;48.116;11.590;2023-11-18T07:59:59;96473.34;;;9.03;100.00
17373;BME280;8803;48.116;11.590;2023-11-18T08:04:19;96476.16;;;9.07;100.00
17373;BME280;8803;48.116;11.590;2023-11-18T08:08:41;96474.16;;;9.10;100.00
17373;BME280;8803;48.116;11.590;2023-11-18T08:12:58;96478.17;;;9.16;100.00
17373;BME280;8803;48.116;11.590;2023-11-18T08:17:20;96491.48;;;9.21;100.00
17373;BME280;8803;48.116;11.590;2023-11-18T08:21:37;96482.84;;;9.25;100.00
17373;BME280;8803;48.116;11.590;2023-11-18T08:25:54;96469.59;;;9.30;100.00
17373;BME280;8803;48.116;11.590;2023-11-18T08:30:13;96471.92;;;9.35;100.00
17373;BME280;8803;48.116;11.590;2023-11-18T08:34:33;96477.70;;;9.34;100.00
17373;BME280;8803;48.116;11.590;2023-11-18T08:38:50;96489.81;;;9.38;100.00
17373;BME280;8803;48.116;11.590;2023-11-18T08:43:07;96499.39;;;9.41;100.00
17373;BME280;8803;48.116;11.590;2023-11-18T08:45:12;96514.59;;;9.39;100.00
17373;BME280;8803;48.116;11.590;2023-11-18T08:49:30;96490.23;;;9.45;100.00
17373;BME280;8803;48.116;11.590;2023-11-18T08:53:47;96482.14;;;9.46;100.00
17373;BME280;8803;48.116;11.590;2023-11-18T08:58:05;96469.59;;;9.48;100.00
17373;BME280;8803;48.116;11.590;2023-11-18T09:02:32;96477.67;;;9.47;100.00
17373;BME280;8803;48.116;11.590;2023-11-18T09:06:53;96486.66;;;9.51;100.00
17373;BME280;8803;48.116;11.590;2023-11-18T09:11:13;96476.78;;;9.59;100.00
17373;BME280;8803;48.116;11.590;2023-11-18T09:15:31;96467.06;;;9.65;100.00
17373;BME280;8803;48.116;11.590;2023-11-18T09:19:48;96470.59;;;9.71;100.00
17373;BME280;8803;48.116;11.590;2023-11-18T09:24:09;96468.44;;;9.76;100.00
17373;BME280;8803;48.116;11.590;2023-11-18T09:28:28;96468.48;;;9.82;100.00
17373;BME280;8803;48.116;11.590;2023-11-18T09:32:46;96472.28;;;9.90;100.00
17373;BME280;8803;48.116;11.590;2023-11-18T09:37:04;96474.50;;;10.02;100.00
17373;BME280;8803;48.116;11.590;2023-11-18T09:41:25;96468.41;;;10.12;100.00
17373;BME280;8803;48.116;11.590;2023-11-18T09:45:45;96477.64;;;10.19;100.00
17373;BME280;8803;48.116;11.590;2023-11-18T09:50:08;96460.83;;;10.24;100.00
17373;BME280;8803;48.116;11.590;2023-11-18T09:52:16;96463.49;;;10.24;100.00
17373;BME280;8803;48.116;11.590;2023-11-18T09:56:40;96456.75;;;10.31;100.00
17373;BME280;8803;48.116;11.590;2023-11-18T10:01:03;96463.19;;;10.35;100.00
17373;BME280;8803;48.116;11.590;2023-11-18T10:05:21;96472.86;;;10.36;100.00
17373;BME280;8803;48.116;11.590;2023-11-18T10:07:28;96471.13;;;10.29;100.00
17373;BME280;8803;48.116;11.590;2023-11-18T10:11:48;96462.45;;;10.33;100.00
17373;BME280;8803;48.116;11.590;2023-11-18T10:16:08;96463.41;;;10.31;100.00
17373;BME280;8803;48.116;11.590;2023-11-18T10:20:43;96452.64;;;10.33;100.00
17373;BME280;8803;48.116;11.590;2023-11-18T10:25:26;96440.19;;;10.33;100.00
17373;BME280;8803;48.116;11.590;2023-11-18T10:29:43;96429.03;;;10.28;100.00
17373;BME280;8803;48.116;11.590;2023-11-18T10:34:02;96426.74;;;10.24;100.00
17373;BME280;8803;48.116;11.590;2023-11-18T10:38:32;96424.42;;;10.19;100.00
17373;BME280;8803;48.116;11.590;2023-11-18T10:42:51;96418.84;;;10.17;100.00
17373;BME280;8803;48.116;11.590;2023-11-18T10:47:07;96409.05;;;10.17;100.00
17373;BME280;8803;48.116;11.590;2023-11-18T10:51:27;96411.34;;;10.16;100.00
17373;BME280;8803;48.116;11.590;2023-11-18T10:55:46;96431.93;;;10.20;100.00
17373;BME280;8803;48.116;11.590;2023-11-18T11:00:10;96436.15;;;10.22;100.00
17373;BME280;8803;48.116;11.590;2023-11-18T11:04:42;96434.72;;;10.24;100.00
17373;BME280;8803;48.116;11.590;2023-11-18T11:08:58;96438.59;;;10.25;100.00
17373;BME280;8803;48.116;11.590;2023-11-18T11:13:18;96432.33;;;10.32;100.00
17373;BME280;8803;48.116;11.590;2023-11-18T11:17:38;96428.46;;;10.42;100.00
17373;BME280;8803;48.116;11.590;2023-11-18T11:24:23;96428.46;;;10.42;96.81
17373;BME280;8803;48.116;11.590;2023-11-18T11:28:52;96433.31;;;10.48;100.00
17373;BME280;8803;48.116;11.590;2023-11-18T11:33:17;96443.02;;;10.49;99.53
17373;BME280;8803;48.116;11.590;2023-11-18T11:37:38;96445.08;;;10.45;94.20
17373;BME280;8803;48.116;11.590;2023-11-18T11:41:58;96450.62;;;10.42;94.38
17373;BME280;8803;48.116;11.590;2023-11-18T11:46:18;96444.69;;;10.44;96.65
17373;BME280;8803;48.116;11.590;2023-11-18T11:51:00;96439.15;;;10.47;99.30
17373;BME280;8803;48.116;11.590;2023-11-18T11:57:39;96420.48;;;10.42;89.80
17373;BME280;8803;48.116;11.590;2023-11-18T12:02:12;96419.78;;;10.45;98.06
17373;BME280;8803;48.116;11.590;2023-11-18T12:06:33;96416.52;;;10.47;97.95
17373;BME280;8803;48.116;11.590;2023-11-18T12:10:55;96401.27;;;10.49;97.56
17373;BME280;8803;48.116;11.590;2023-11-18T12:15:50;96394.01;;;10.57;100.00
17373;BME280;8803;48.116;11.590;2023-11-18T12:25:38;96402.38;;;10.58;96.02
17373;BME280;8803;48.116;11.590;2023-11-18T12:29:58;96398.25;;;10.59;98.87
17373;BME280;8803;48.116;11.590;2023-11-18T12:34:16;96388.68;;;10.62;100.00
17373;BME280;8803;48.116;11.590;2023-11-18T12:43:59;96371.27;;;10.69;100.00
17373;BME280;8803;48.116;11.590;2023-11-18T12:48:40;96359.05;;;10.72;100.00
17373;BME280;8803;48.116;11.590;2023-11-18T12:52:59;96348.88;;;10.72;100.00
17373;BME280;8803;48.116;11.590;2023-11-18T12:57:20;96351.54;;;10.72;100.00
17373;BME280;8803;48.116;11.590;2023-11-18T13:01:38;96338.70;;;10.71;100.00
17373;BME280;8803;48.116;11.590;2023-11-18T13:05:57;96343.42;;;10.73;100.00
17373;BME280;8803;48.116;11.590;2023-11-18T13:10:16;96355.17;;;10.76;100.00
17373;BME280;8803;48.116;11.590;2023-11-18T13:14:34;96340.88;;;10.77;100.00
17373;BME280;8803;48.116;11.590;2023-11-18T13:18:52;96328.03;;;10.77;100.00
17373;BME280;8803;48.116;11.590;2023-11-18T13:23:12;96325.02;;;10.76;100.00
17373;BME280;8803;48.116;11.590;2023-11-18T13:27:31;96325.77;;;10.72;100.00
17373;BME280;8803;48.116;11.590;2023-11-18T13:31:50;96316.67;;;10.69;100.00
17373;BME280;8803;48.116;11.590;2023-11-18T13:36:11;96308.56;;;10.65;100.00
17373;BME280;8803;48.116;11.590;2023-11-18T13:40:28;96309.40;;;10.60;100.00
17373;BME280;8803;48.116;11.590;2023-11-18T13:44:48;96308.33;;;10.57;100.00
17373;BME280;8803;48.116;11.590;2023-11-18T13:49:06;96302.28;;;10.55;100.00
17373;BME280;8803;48.116;11.590;2023-11-18T13:53:26;96303.23;;;10.54;100.00
17373;BME280;8803;48.116;11.590;2023-11-18T13:57:43;96294.52;;;10.52;100.00
17373;BME280;8803;48.116;11.590;2023-11-18T14:02:00;96303.11;;;10.50;100.00
17373;BME280;8803;48.116;11.590;2023-11-18T14:06:22;96300.11;;;10.49;100.00
17373;BME280;8803;48.116;11.590;2023-11-18T14:10:41;96291.27;;;10.49;100.00
17373;BME280;8803;48.116;11.590;2023-11-18T14:15:11;96282.90;;;10.48;100.00
17373;BME280;8803;48.116;11.590;2023-11-18T14:19:30;96291.39;;;10.47;100.00
17373;BME280;8803;48.116;11.590;2023-11-18T14:23:47;96283.75;;;10.48;100.00
17373;BME280;8803;48.116;11.590;2023-11-18T14:28:06;96291.52;;;10.51;100.00
17373;BME280;8803;48.116;11.590;2023-11-18T14:32:27;96274.20;;;10.51;100.00
17373;BME280;8803;48.116;11.590;2023-11-18T14:36:43;96270.21;;;10.51;100.00
17373;BME280;8803;48.116;11.590;2023-11-18T14:41:00;96264.16;;;10.49;100.00
17373;BME280;8803;48.116;11.590;2023-11-18T14:45:18;96260.05;;;10.45;100.00
17373;BME280;8803;48.116;11.590;2023-11-18T14:49:36;96259.80;;;10.43;100.00
17373;BME280;8803;48.116;11.590;2023-11-18T14:53:52;96284.25;;;10.37;100.00
17373;BME280;8803;48.116;11.590;2023-11-18T14:58:10;96284.23;;;10.31;100.00
17373;BME280;8803;48.116;11.590;2023-11-18T15:02:29;96263.80;;;10.26;100.00
17373;BME280;8803;48.116;11.590;2023-11-18T15:06:46;96263.68;;;10.22;100.00
17373;BME280;8803;48.116;11.590;2023-11-18T15:11:06;96247.47;;;10.19;100.00
17373;BME280;8803;48.116;11.590;2023-11-18T15:15:24;96249.50;;;10.16;100.00
17373;BME280;8803;48.116;11.590;2023-11-18T15:19:45;96250.95;;;10.14;100.00
17373;BME280;8803;48.116;11.590;2023-11-18T15:24:03;96239.59;;;10.12;100.00
17373;BME280;8803;48.116;11.590;2023-11-18T15:28:20;96229.42;;;10.12;100.00
17373;BME280;8803;48.116;11.590;2023-11-18T15:32:38;96214.44;;;10.11;100.00
17373;BME280;8803;48.116;11.590;2023-11-18T15:36:56;96203.39;;;10.10;100.00
17373;BME280;8803;48.116;11.590;2023-11-18T15:41:15;96204.38;;;10.09;100.00
17373;BME280;8803;48.116;11.590;2023-11-18T15:45:33;96197.00;;;10.07;100.00
17373;BME280;8803;48.116;11.590;2023-11-18T15:49:51;96186.23;;;10.08;100.00
17373;BME280;8803;48.116;11.590;2023-11-18T15:54:09;96178.38;;;10.07;100.00
17373;BME280;8803;48.116;11.590;2023-11-18T15:58:27;96197.85;;;10.07;100.00
17373;BME280;8803;48.116;11.590;2023-11-18T16:02:45;96206.31;;;10.07;100.00
17373;BME280;8803;48.116;11.590;2023-11-18T16:07:04;96198.80;;;10.06;100.00
17373;BME280;8803;48.116;11.590;2023-11-18T16:11:21;96205.08;;;10.05;100.00
17373;BME280;8803;48.116;11.590;2023-11-18T16:15:38;96207.39;;;10.04;100.00
17373;BME280;8803;48.116;11.590;2023-11-18T16:19:56;96206.91;;;10.05;100.00
17373;BME280;8803;48.116;11.590;2023-11-18T16:22:03;96215.25;;;10.00;100.00
17373;BME280;8803;48.116;11.590;2023-11-18T16:26:23;96200.36;;;10.03;100.00
17373;BME280;8803;48.116;11.590;2023-11-18T16:30:40;96187.06;;;10.03;100.00
17373;BME280;8803;48.116;11.590;2023-11-18T16:34:59;96169.05;;;10.01;100.00
17373;BME280;8803;48.116;11.590;2023-11-18T16:39:17;96165.05;;;10.01;100.00
17373;BME280;8803;48.116;11.590;2023-11-18T16:43:36;96169.91;;;10.02;100.00
17373;BME280;8803;48.116;11.590;2023-11-18T16:47:54;96162.18;;;9.99;100.00
17373;BME280;8803;48.116;11.590;2023-11-18T16:52:11;96160.47;;;9.98;100.00
17373;BME280;8803;48.116;11.590;2023-11-18T16:56:29;96175.58;;;9.97;100.00
17373;BME280;8803;48.116;11.590;2023-11-18T17:00:46;96173.05;;;9.96;100.00
17373;BME280;8803;48.116;11.590;2023-11-18T17:05:07;96181.03;;;9.96;100.00
17373;BME280;8803;48.116;11.590;2023-11-18T17:09:25;96204.59;;;9.95;100.00
17373;BME280;8803;48.116;11.590;2023-11-18T17:13:42;96212.56;;;9.95;100.00
17373;BME280;8803;48.116;11.590;2023-11-18T17:18:00;96211.02;;;9.92;100.00
17373;BME280;8803;48.116;11.590;2023-11-18T17:22:20;96222.13;;;9.92;100.00
17373;BME280;8803;48.116;11.590;2023-11-18T17:26:37;96211.12;;;9.91;100.00
17373;BME280;8803;48.116;11.590;2023-11-18T17:30:55;96211.63;;;9.90;100.00
17373;BME280;8803;48.116;11.590;2023-11-18T17:35:14;96206.40;;;9.89;100.00
17373;BME280;8803;48.116;11.590;2023-11-18T17:39:31;96202.06;;;9.88;100.00
17373;BME280;8803;48.116;11.590;2023-11-18T17:43:48;96199.88;;;9.87;100.00
17373;BME280;8803;48.116;11.590;2023-11-18T17:48:06;96195.64;;;9.85;100.00
17373;BME280;8803;48.116;11.590;2023-11-18T17:52:26;96185.38;;;9.86;100.00
17373;BME280;8803;48.116;11.590;2023-11-18T17:56:44;96188.52;;;9.85;100.00
17373;BME280;8803;48.116;11.590;2023-11-18T18:01:01;96186.08;;;9.82;100.00
17373;BME280;8803;48.116;11.590;2023-11-18T18:05:23;96193.72;;;9.81;100.00
17373;BME280;8803;48.116;11.590;2023-11-18T18:07:27;96192.27;;;9.77;100.00
17373;BME280;8803;48.116;11.590;2023-11-18T18:11:45;96189.72;;;9.81;100.00
17373;BME280;8803;48.116;11.590;2023-11-18T18:16:02;96187.54;;;9.81;100.00
17373;BME280;8803;48.116;11.590;2023-11-18T18:20:20;96201.09;;;9.83;100.00
17373;BME280;8803;48.116;11.590;2023-11-18T18:24:37;96196.13;;;9.79;100.00
17373;BME280;8803;48.116;11.590;2023-11-18T18:28:55;96188.52;;;9.80;100.00
17373;BME280;8803;48.116;11.590;2023-11-18T18:33:12;96180.89;;;9.81;100.00
17373;BME280;8803;48.116;11.590;2023-11-18T18:37:31;96177.16;;;9.78;100.00
17373;BME280;8803;48.116;11.590;2023-11-18T18:41:49;96170.27;;;9.75;100.00
17373;BME280;8803;48.116;11.590;2023-11-18T18:46:07;96167.73;;;9.74;100.00
17373;BME280;8803;48.116;11.590;2023-11-18T18:50:25;96161.09;;;9.74;100.00
17373;BME280;8803;48.116;11.590;2023-11-18T18:54:44;96151.02;;;9.72;100.00
17373;BME280;8803;48.116;11.590;2023-11-18T18:59:02;96147.89;;;9.72;100.00
17373;BME280;8803;48.116;11.590;2023-11-18T19:03:22;96141.12;;;9.68;100.00
17373;BME280;8803;48.116;11.590;2023-11-18T19:07:42;96151.26;;;9.58;100.00
17373;BME280;8803;48.116;11.590;2023-11-18T19:12:01;96154.52;;;9.55;100.00
17373;BME280;8803;48.116;11.590;2023-11-18T19:14:06;96156.45;;;9.48;100.00
17373;BME280;8803;48.116;11.590;2023-11-18T19:18:23;96151.73;;;9.51;100.00
17373;BME280;8803;48.116;11.590;2023-11-18T19:20:28;96159.59;;;9.47;100.00
17373;BME280;8803;48.116;11.590;2023-11-18T19:24:45;96148.36;;;9.49;100.00
17373;BME280;8803;48.116;11.590;2023-11-18T19:29:03;96133.61;;;9.45;100.00
17373;BME280;8803;48.116;11.590;2023-11-18T19:33:23;96122.48;;;9.40;100.00
17373;BME280;8803;48.116;11.590;2023-11-18T19:37:39;96116.69;;;9.35;100.00
17373;BME280;8803;48.116;11.590;2023-11-18T19:41:56;96090.34;;;9.32;100.00
17373;BME280;8803;48.116;11.590;2023-11-18T19:46:16;96073.33;;;9.29;100.00
17373;BME280;8803;48.116;11.590;2023-11-18T19:48:21;96071.62;;;9.23;100.00
17373;BME280;8803;48.116;11.590;2023-11-18T19:52:40;96052.41;;;9.19;100.00
17373;BME280;8803;48.116;11.590;2023-11-18T19:56:57;96054.44;;;8.99;100.00
17373;BME280;8803;48.116;11.590;2023-11-18T20:01:17;96046.56;;;8.92;100.00
17373;BME280;8803;48.116;11.590;2023-11-18T20:05:35;96043.31;;;8.89;100.00
17373;BME280;8803;48.116;11.590;2023-11-18T20:09:51;96051.14;;;8.79;100.00
17373;BME280;8803;48.116;11.590;2023-11-18T20:14:09;96058.86;;;8.77;100.00
17373;BME280;8803;48.116;11.590;2023-11-18T20:16:14;96073.67;;;8.68;100.00
17373;BME280;8803;48.116;11.590;2023-11-18T20:20:32;96067.25;;;8.65;100.00
17373;BME280;8803;48.116;11.590;2023-11-18T20:24:49;96053.84;;;8.61;100.00
17373;BME280;8803;48.116;11.590;2023-11-18T20:29:07;96049.00;;;8.55;100.00
17373;BME280;8803;48.116;11.590;2023-11-18T20:33:24;96020.75;;;8.48;100.00
17373;BME280;8803;48.116;11.590;2023-11-18T20:37:41;96002.31;;;8.47;100.00
17373;BME280;8803;48.116;11.590;2023-11-18T20:42:02;95990.58;;;8.38;100.00
17373;BME280;8803;48.116;11.590;2023-11-18T20:44:08;95986.59;;;8.33;100.00
17373;BME280;8803;48.116;11.590;2023-11-18T20:46:12;95979.11;;;8.32;100.00
17373;BME280;8803;48.116;11.590;2023-11-18T20:50:30;95956.02;;;8.22;100.00
17373;BME280;8803;48.116;11.590;2023-11-18T20:54:47;95948.66;;;8.20;100.00
17373;BME280;8803;48.116;11.590;2023-11-18T20:59:04;95942.62;;;8.18;100.00
17373;BME280;8803;48.116;11.590;2023-11-18T21:03:22;95927.66;;;8.17;100.00
17373;BME280;8803;48.116;11.590;2023-11-18T21:07:40;95937.41;;;8.16;100.00
17373;BME280;8803;48.116;11.590;2023-11-18T21:11:58;95929.02;;;8.22;100.00
17373;BME280;8803;48.116;11.590;2023-11-18T21:16:17;95921.41;;;8.23;100.00
17373;BME280;8803;48.116;11.590;2023-11-18T21:18:21;95913.32;;;8.19;100.00
17373;BME280;8803;48.116;11.590;2023-11-18T21:20:25;95908.48;;;8.13;100.00
17373;BME280;8803;48.116;11.590;2023-11-18T21:24:43;95886.55;;;8.17;100.00
17373;BME280;8803;48.116;11.590;2023-11-18T21:29:00;95868.58;;;8.15;100.00
17373;BME280;8803;48.116;11.590;2023-11-18T21:33:19;95851.82;;;8.03;100.00
17373;BME280;8803;48.116;11.590;2023-11-18T21:37:37;95841.22;;;8.03;100.00
17373;BME280;8803;48.116;11.590;2023-11-18T21:41:54;95822.75;;;8.02;100.00
17373;BME280;8803;48.116;11.590;2023-11-18T21:46:11;95806.97;;;7.94;100.00
17373;BME280;8803;48.116;11.590;2023-11-18T21:48:16;95811.17;;;7.91;100.00
17373;BME280;8803;48.116;11.590;2023-11-18T21:52:36;95800.09;;;7.92;100.00
17373;BME280;8803;48.116;11.590;2023-11-18T21:56:54;95798.89;;;7.96;100.00